sensor_id;sensor_type;location;lat;lon;timestamp;pressure;altitude;pressure_sealevel;temperature
53512;BMP280;39392;52.832;13.816;2024-03-17T00:00:21;101864.84;;;20.57
53512;BMP280;39392;52.832;13.816;2024-03-17T00:02:47;101874.00;;;20.56
53512;BMP280;39392;52.832;13.816;2024-03-17T00:05:13;101875.03;;;20.55
53512;BMP280;39392;52.832;13.816;2024-03-17T00:07:38;101875.72;;;20.57
53512;BMP280;39392;52.832;13.816;2024-03-17T00:10:04;101880.31;;;20.57
53512;BMP280;39392;52.832;13.816;2024-03-17T00:12:30;101882.34;;;20.55
53512;BMP280;39392;52.832;13.816;2024-03-17T00:14:55;101884.03;;;20.56
53512;BMP280;39392;52.832;13.816;2024-03-17T00:17:21;101885.91;;;20.55
53512;BMP280;39392;52.832;13.816;2024-03-17T00:19:46;101887.63;;;20.56
53512;BMP280;39392;52.832;13.816;2024-03-17T00:22:12;101889.50;;;20.56
53512;BMP280;39392;52.832;13.816;2024-03-17T00:24:40;101884.91;;;20.56
53512;BMP280;39392;52.832;13.816;2024-03-17T00:27:05;101884.91;;;20.56
53512;BMP280;39392;52.832;13.816;2024-03-17T00:29:31;101885.78;;;20.57
53512;BMP280;39392;52.832;13.816;2024-03-17T00:31:57;101893.06;;;20.56
53512;BMP280;39392;52.832;13.816;2024-03-17T00:34:23;101893.06;;;20.56
53512;BMP280;39392;52.832;13.816;2024-03-17T00:36:48;101888.63;;;20.55
53512;BMP280;39392;52.832;13.816;2024-03-17T00:39:14;101892.22;;;20.56
53512;BMP280;39392;52.832;13.816;2024-03-17T00:41:40;101893.94;;;20.57
53512;BMP280;39392;52.832;13.816;2024-03-17T00:44:05;101891.34;;;20.55
53512;BMP280;39392;52.832;13.816;2024-03-17T00:46:31;101897.66;;;20.56
53512;BMP280;39392;52.832;13.816;2024-03-17T00:48:58;101901.22;;;20.56
53512;BMP280;39392;52.832;13.816;2024-03-17T00:51:23;101895.28;;;20.53
53512;BMP280;39392;52.832;13.816;2024-03-17T00:53:49;101893.53;;;20.52
53512;BMP280;39392;52.832;13.816;2024-03-17T00:56:14;101896.97;;;20.54
53512;BMP280;39392;52.832;13.816;2024-03-17T00:58:40;101904.59;;;20.50
53512;BMP280;39392;52.832;13.816;2024-03-17T01:01:06;101916.34;;;20.51
53512;BMP280;39392;52.832;13.816;2024-03-17T01:03:32;101901.72;;;20.52
53512;BMP280;39392;52.832;13.816;2024-03-17T01:05:57;101902.72;;;20.51
53512;BMP280;39392;52.832;13.816;2024-03-17T01:08:23;101901.16;;;20.48
53512;BMP280;39392;52.832;13.816;2024-03-17T01:10:48;101909.47;;;20.47
53512;BMP280;39392;52.832;13.816;2024-03-17T01:13:15;101895.84;;;20.47
53512;BMP280;39392;52.832;13.816;2024-03-17T01:15:40;101908.78;;;20.45
53512;BMP280;39392;52.832;13.816;2024-03-17T01:18:06;101905.22;;;20.44
53512;BMP280;39392;52.832;13.816;2024-03-17T01:20:32;101907.22;;;20.42
53512;BMP280;39392;52.832;13.816;2024-03-17T01:22:58;101909.94;;;20.42
53512;BMP280;39392;52.832;13.816;2024-03-17T01:25:24;101900.09;;;20.41
53512;BMP280;39392;52.832;13.816;2024-03-17T01:27:54;101886.59;;;20.39
53512;BMP280;39392;52.832;13.816;2024-03-17T01:30:19;101891.91;;;20.41
53512;BMP280;39392;52.832;13.816;2024-03-17T01:32:45;101890.03;;;20.42
53512;BMP280;39392;52.832;13.816;2024-03-17T01:35:11;101892.75;;;20.42
53512;BMP280;39392;52.832;13.816;2024-03-17T01:37:37;101890.03;;;20.42
53512;BMP280;39392;52.832;13.816;2024-03-17T01:40:03;101890.03;;;20.42
53512;BMP280;39392;52.832;13.816;2024-03-17T01:42:33;101887.31;;;20.42
53512;BMP280;39392;52.832;13.816;2024-03-17T01:44:59;101880.00;;;20.42
53512;BMP280;39392;52.832;13.816;2024-03-17T01:47:24;101884.75;;;20.40
53512;BMP280;39392;52.832;13.816;2024-03-17T01:49:50;101887.63;;;20.38
53512;BMP280;39392;52.832;13.816;2024-03-17T01:52:16;101888.81;;;20.36
53512;BMP280;39392;52.832;13.816;2024-03-17T01:54:42;101891.53;;;20.36
53512;BMP280;39392;52.832;13.816;2024-03-17T01:57:08;101893.38;;;20.35
53512;BMP280;39392;52.832;13.816;2024-03-17T01:59:35;101891.53;;;20.36
53512;BMP280;39392;52.832;13.816;2024-03-17T02:02:00;101902.44;;;20.36
53512;BMP280;39392;52.832;13.816;2024-03-17T02:04:26;101885.91;;;20.37
53512;BMP280;39392;52.832;13.816;2024-03-17T02:06:52;101891.38;;;20.37
53512;BMP280;39392;52.832;13.816;2024-03-17T02:09:17;101895.09;;;20.36
53512;BMP280;39392;52.832;13.816;2024-03-17T02:11:44;101882.34;;;20.37
53512;BMP280;39392;52.832;13.816;2024-03-17T02:14:09;101890.50;;;20.37
53512;BMP280;39392;52.832;13.816;2024-03-17T02:16:36;101894.09;;;20.37
53512;BMP280;39392;52.832;13.816;2024-03-17T02:19:01;101895.09;;;20.36
53512;BMP280;39392;52.832;13.816;2024-03-17T02:21:27;101884.91;;;20.38
53512;BMP280;39392;52.832;13.816;2024-03-17T02:23:53;101884.03;;;20.38
53512;BMP280;39392;52.832;13.816;2024-03-17T02:26:18;101892.22;;;20.38
53512;BMP280;39392;52.832;13.816;2024-03-17T02:28:45;101895.78;;;20.38
53512;BMP280;39392;52.832;13.816;2024-03-17T02:31:11;101895.78;;;20.38
53512;BMP280;39392;52.832;13.816;2024-03-17T02:33:38;101899.38;;;20.39
53512;BMP280;39392;52.832;13.816;2024-03-17T02:36:06;101902.94;;;20.39
53512;BMP280;39392;52.832;13.816;2024-03-17T02:38:35;101906.84;;;20.37
53512;BMP280;39392;52.832;13.816;2024-03-17T02:41:20;101904.44;;;20.34
53512;BMP280;39392;52.832;13.816;2024-03-17T02:43:46;101903.41;;;20.35
53512;BMP280;39392;52.832;13.816;2024-03-17T02:46:12;101908.84;;;20.35
53512;BMP280;39392;52.832;13.816;2024-03-17T02:48:39;101908.19;;;20.33
53512;BMP280;39392;52.832;13.816;2024-03-17T02:51:10;101903.41;;;20.35
53512;BMP280;39392;52.832;13.816;2024-03-17T02:53:36;101902.56;;;20.34
53512;BMP280;39392;52.832;13.816;2024-03-17T02:56:01;101903.59;;;20.33
53512;BMP280;39392;52.832;13.816;2024-03-17T02:58:27;101902.72;;;20.33
53512;BMP280;39392;52.832;13.816;2024-03-17T03:00:52;101895.41;;;20.33
53512;BMP280;39392;52.832;13.816;2024-03-17T03:03:17;101897.28;;;20.33
53512;BMP280;39392;52.832;13.816;2024-03-17T03:05:43;101900.00;;;20.33
53512;BMP280;39392;52.832;13.816;2024-03-17T03:08:08;101911.75;;;20.33
53512;BMP280;39392;52.832;13.816;2024-03-17T03:10:34;101902.00;;;20.31
53512;BMP280;39392;52.832;13.816;2024-03-17T03:13:00;101900.31;;;20.30
53512;BMP280;39392;52.832;13.816;2024-03-17T03:15:26;101901.16;;;20.30
53512;BMP280;39392;52.832;13.816;2024-03-17T03:17:51;101901.16;;;20.30
53512;BMP280;39392;52.832;13.816;2024-03-17T03:20:17;101908.66;;;20.28
53512;BMP280;39392;52.832;13.816;2024-03-17T03:22:43;101908.66;;;20.28
53512;BMP280;39392;52.832;13.816;2024-03-17T03:25:08;101907.63;;;20.29
53512;BMP280;39392;52.832;13.816;2024-03-17T03:27:34;101902.19;;;20.29
53512;BMP280;39392;52.832;13.816;2024-03-17T03:29:59;101904.75;;;20.31
53512;BMP280;39392;52.832;13.816;2024-03-17T03:32:25;101903.19;;;20.28
53512;BMP280;39392;52.832;13.816;2024-03-17T03:34:50;101901.47;;;20.27
53512;BMP280;39392;52.832;13.816;2024-03-17T03:37:16;101906.59;;;20.30
53512;BMP280;39392;52.832;13.816;2024-03-17T03:39:41;101904.75;;;20.31
53512;BMP280;39392;52.832;13.816;2024-03-17T03:42:07;101907.31;;;20.32
53512;BMP280;39392;52.832;13.816;2024-03-17T03:44:32;101900.16;;;20.31
53512;BMP280;39392;52.832;13.816;2024-03-17T03:46:58;101901.88;;;20.32
53512;BMP280;39392;52.832;13.816;2024-03-17T03:49:26;101908.31;;;20.31
53512;BMP280;39392;52.832;13.816;2024-03-17T03:51:51;101905.59;;;20.31
53512;BMP280;39392;52.832;13.816;2024-03-17T03:54:17;101917.38;;;20.32
53512;BMP280;39392;52.832;13.816;2024-03-17T03:56:42;101914.94;;;20.29
53512;BMP280;39392;52.832;13.816;2024-03-17T03:59:08;101923.13;;;20.29
53512;BMP280;39392;52.832;13.816;2024-03-17T04:01:33;101922.25;;;20.28
53512;BMP280;39392;52.832;13.816;2024-03-17T04:03:59;101918.69;;;20.28
53512;BMP280;39392;52.832;13.816;2024-03-17T04:06:24;101915.97;;;20.28
53512;BMP280;39392;52.832;13.816;2024-03-17T04:08:50;101916.09;;;20.26
53512;BMP280;39392;52.832;13.816;2024-03-17T04:11:15;101923.41;;;20.26
53512;BMP280;39392;52.832;13.816;2024-03-17T04:13:41;101925.13;;;20.27
53512;BMP280;39392;52.832;13.816;2024-03-17T04:16:07;101921.53;;;20.26
53512;BMP280;39392;52.832;13.816;2024-03-17T04:18:32;101924.28;;;20.26
53512;BMP280;39392;52.832;13.816;2024-03-17T04:21:03;101927.00;;;20.26
53512;BMP280;39392;52.832;13.816;2024-03-17T04:23:29;101933.28;;;20.27
53512;BMP280;39392;52.832;13.816;2024-03-17T04:25:57;101938.91;;;20.25
53512;BMP280;39392;52.832;13.816;2024-03-17T04:28:23;101943.31;;;20.26
53512;BMP280;39392;52.832;13.816;2024-03-17T04:30:49;101945.19;;;20.26
53512;BMP280;39392;52.832;13.816;2024-03-17T04:33:14;101941.44;;;20.27
53512;BMP280;39392;52.832;13.816;2024-03-17T04:35:42;101952.50;;;20.25
53512;BMP280;39392;52.832;13.816;2024-03-17T04:38:07;101949.94;;;20.24
53512;BMP280;39392;52.832;13.816;2024-03-17T04:40:34;101942.94;;;20.21
53512;BMP280;39392;52.832;13.816;2024-03-17T04:43:00;101949.25;;;20.22
53512;BMP280;39392;52.832;13.816;2024-03-17T04:45:26;101943.66;;;20.23
53512;BMP280;39392;52.832;13.816;2024-03-17T04:47:52;101951.97;;;20.22
53512;BMP280;39392;52.832;13.816;2024-03-17T04:50:17;101950.09;;;20.22
53512;BMP280;39392;52.832;13.816;2024-03-17T04:52:43;101953.84;;;20.21
53512;BMP280;39392;52.832;13.816;2024-03-17T04:55:09;101956.56;;;20.21
53512;BMP280;39392;52.832;13.816;2024-03-17T04:57:34;101960.97;;;20.22
53512;BMP280;39392;52.832;13.816;2024-03-17T05:00:01;101970.16;;;20.21
53512;BMP280;39392;52.832;13.816;2024-03-17T05:02:27;101973.72;;;20.22
53512;BMP280;39392;52.832;13.816;2024-03-17T05:04:53;101975.59;;;20.21
53512;BMP280;39392;52.832;13.816;2024-03-17T05:07:19;101972.88;;;20.21
53512;BMP280;39392;52.832;13.816;2024-03-17T05:09:44;101978.31;;;20.21
53512;BMP280;39392;52.832;13.816;2024-03-17T05:12:10;101982.91;;;20.21
53512;BMP280;39392;52.832;13.816;2024-03-17T05:14:35;101980.19;;;20.21
53512;BMP280;39392;52.832;13.816;2024-03-17T05:17:01;101975.59;;;20.21
53512;BMP280;39392;52.832;13.816;2024-03-17T05:19:26;101970.16;;;20.21
53512;BMP280;39392;52.832;13.816;2024-03-17T05:21:52;101969.16;;;20.22
53512;BMP280;39392;52.832;13.816;2024-03-17T05:24:17;101973.72;;;20.22
53512;BMP280;39392;52.832;13.816;2024-03-17T05:26:44;101979.19;;;20.22
53512;BMP280;39392;52.832;13.816;2024-03-17T05:29:11;101981.78;;;20.23
53512;BMP280;39392;52.832;13.816;2024-03-17T05:31:36;101986.31;;;20.23
53512;BMP280;39392;52.832;13.816;2024-03-17T05:34:04;101996.22;;;20.24
53512;BMP280;39392;52.832;13.816;2024-03-17T05:36:30;101997.94;;;20.25
53512;BMP280;39392;52.832;13.816;2024-03-17T05:38:58;102004.22;;;20.25
53512;BMP280;39392;52.832;13.816;2024-03-17T05:41:23;102006.97;;;20.25
53512;BMP280;39392;52.832;13.816;2024-03-17T05:43:52;102018.00;;;20.24
53512;BMP280;39392;52.832;13.816;2024-03-17T05:46:17;102022.44;;;20.25
53512;BMP280;39392;52.832;13.816;2024-03-17T05:48:43;102014.28;;;20.25
53512;BMP280;39392;52.832;13.816;2024-03-17T05:51:09;102017.00;;;20.25
53512;BMP280;39392;52.832;13.816;2024-03-17T05:53:37;102018.69;;;20.26
53512;BMP280;39392;52.832;13.816;2024-03-17T05:56:05;102025.84;;;20.27
53512;BMP280;39392;52.832;13.816;2024-03-17T05:58:32;102027.72;;;20.26
53512;BMP280;39392;52.832;13.816;2024-03-17T06:01:01;102033.03;;;20.28
53512;BMP280;39392;52.832;13.816;2024-03-17T06:03:27;102023.97;;;20.27
53512;BMP280;39392;52.832;13.816;2024-03-17T06:05:52;102035.59;;;20.29
53512;BMP280;39392;52.832;13.816;2024-03-17T06:08:19;102028.44;;;20.28
53512;BMP280;39392;52.832;13.816;2024-03-17T06:10:45;102030.13;;;20.29
53512;BMP280;39392;52.832;13.816;2024-03-17T06:13:11;102033.72;;;20.30
53512;BMP280;39392;52.832;13.816;2024-03-17T06:15:41;102038.31;;;20.29
53512;BMP280;39392;52.832;13.816;2024-03-17T06:18:06;102037.28;;;20.30
53512;BMP280;39392;52.832;13.816;2024-03-17T06:20:39;102040.88;;;20.31
53512;BMP280;39392;52.832;13.816;2024-03-17T06:23:04;102049.03;;;20.31
53512;BMP280;39392;52.832;13.816;2024-03-17T06:25:30;102040.88;;;20.31
53512;BMP280;39392;52.832;13.816;2024-03-17T06:27:55;102049.75;;;20.33
53512;BMP280;39392;52.832;13.816;2024-03-17T06:30:22;102058.94;;;20.32
53512;BMP280;39392;52.832;13.816;2024-03-17T06:32:48;102044.44;;;20.31
53512;BMP280;39392;52.832;13.816;2024-03-17T06:35:13;102047.88;;;20.33
53512;BMP280;39392;52.832;13.816;2024-03-17T06:37:43;102048.91;;;20.32
53512;BMP280;39392;52.832;13.816;2024-03-17T06:40:12;102050.59;;;20.33
53512;BMP280;39392;52.832;13.816;2024-03-17T06:42:38;102052.47;;;20.33
53512;BMP280;39392;52.832;13.816;2024-03-17T06:45:04;102056.22;;;20.32
53512;BMP280;39392;52.832;13.816;2024-03-17T06:47:30;102059.78;;;20.32
53512;BMP280;39392;52.832;13.816;2024-03-17T06:49:56;102052.31;;;20.34
53512;BMP280;39392;52.832;13.816;2024-03-17T06:52:21;102061.34;;;20.35
53512;BMP280;39392;52.832;13.816;2024-03-17T06:54:47;102064.59;;;20.38
53512;BMP280;39392;52.832;13.816;2024-03-17T06:57:15;102068.06;;;20.40
53512;BMP280;39392;52.832;13.816;2024-03-17T06:59:40;102070.44;;;20.44
53512;BMP280;39392;52.832;13.816;2024-03-17T07:02:06;102067.59;;;20.45
53512;BMP280;39392;52.832;13.816;2024-03-17T07:04:32;102065.88;;;20.44
53512;BMP280;39392;52.832;13.816;2024-03-17T07:06:57;102075.59;;;20.47
53512;BMP280;39392;52.832;13.816;2024-03-17T07:09:23;102069.13;;;20.48
53512;BMP280;39392;52.832;13.816;2024-03-17T07:11:49;102075.31;;;20.50
53512;BMP280;39392;52.832;13.816;2024-03-17T07:14:14;102076.19;;;20.50
53512;BMP280;39392;52.832;13.816;2024-03-17T07:16:40;102077.88;;;20.51
53512;BMP280;39392;52.832;13.816;2024-03-17T07:19:05;102085.03;;;20.52
53512;BMP280;39392;52.832;13.816;2024-03-17T07:21:31;102082.31;;;20.52
53512;BMP280;39392;52.832;13.816;2024-03-17T07:24:00;102089.50;;;20.53
53512;BMP280;39392;52.832;13.816;2024-03-17T07:26:30;102090.34;;;20.54
53512;BMP280;39392;52.832;13.816;2024-03-17T07:28:55;102089.34;;;20.55
53512;BMP280;39392;52.832;13.816;2024-03-17T07:31:21;102090.19;;;20.55
53512;BMP280;39392;52.832;13.816;2024-03-17T07:33:46;102083.72;;;20.56
53512;BMP280;39392;52.832;13.816;2024-03-17T07:36:13;102090.91;;;20.57
53512;BMP280;39392;52.832;13.816;2024-03-17T07:38:38;102092.63;;;20.58
53512;BMP280;39392;52.832;13.816;2024-03-17T07:41:05;102097.91;;;20.60
53512;BMP280;39392;52.832;13.816;2024-03-17T07:43:32;102104.06;;;20.62
53512;BMP280;39392;52.832;13.816;2024-03-17T07:48:23;102113.78;;;20.64
53512;BMP280;39392;52.832;13.816;2024-03-17T07:51:01;102109.34;;;20.63
53512;BMP280;39392;52.832;13.816;2024-03-17T07:53:29;102107.47;;;20.64
53512;BMP280;39392;52.832;13.816;2024-03-17T07:56:05;102112.78;;;20.66
53512;BMP280;39392;52.832;13.816;2024-03-17T07:58:31;102117.22;;;20.67
53512;BMP280;39392;52.832;13.816;2024-03-17T08:01:00;102119.94;;;20.67
53512;BMP280;39392;52.832;13.816;2024-03-17T08:03:26;102112.63;;;20.67
53512;BMP280;39392;52.832;13.816;2024-03-17T08:05:52;102119.78;;;20.68
53512;BMP280;39392;52.832;13.816;2024-03-17T08:08:18;102125.09;;;20.70
53512;BMP280;39392;52.832;13.816;2024-03-17T08:10:44;102129.53;;;20.71
53512;BMP280;39392;52.832;13.816;2024-03-17T08:13:09;102126.78;;;20.71
53512;BMP280;39392;52.832;13.816;2024-03-17T08:15:35;102125.78;;;20.72
53512;BMP280;39392;52.832;13.816;2024-03-17T08:18:00;102117.78;;;20.70
53512;BMP280;39392;52.832;13.816;2024-03-17T08:20:26;102117.78;;;20.70
53512;BMP280;39392;52.832;13.816;2024-03-17T08:22:51;102117.59;;;20.72
53512;BMP280;39392;52.832;13.816;2024-03-17T08:25:17;102126.63;;;20.72
53512;BMP280;39392;52.832;13.816;2024-03-17T08:27:43;102121.91;;;20.74
53512;BMP280;39392;52.832;13.816;2024-03-17T08:30:08;102129.06;;;20.75
53512;BMP280;39392;52.832;13.816;2024-03-17T08:32:35;102129.91;;;20.76
53512;BMP280;39392;52.832;13.816;2024-03-17T08:35:00;102135.19;;;20.77
53512;BMP280;39392;52.832;13.816;2024-03-17T08:37:26;102134.19;;;20.78
53512;BMP280;39392;52.832;13.816;2024-03-17T08:39:52;102135.91;;;20.79
53512;BMP280;39392;52.832;13.816;2024-03-17T08:42:17;102132.03;;;20.82
53512;BMP280;39392;52.832;13.816;2024-03-17T08:44:45;102143.78;;;20.82
53512;BMP280;39392;52.832;13.816;2024-03-17T08:47:11;102142.75;;;20.83
53512;BMP280;39392;52.832;13.816;2024-03-17T08:49:36;102140.88;;;20.84
53512;BMP280;39392;52.832;13.816;2024-03-17T08:52:02;102134.28;;;20.86
53512;BMP280;39392;52.832;13.816;2024-03-17T08:54:27;102129.69;;;20.87
53512;BMP280;39392;52.832;13.816;2024-03-17T08:56:53;102135.81;;;20.89
53512;BMP280;39392;52.832;13.816;2024-03-17T08:59:18;102131.09;;;20.91
53512;BMP280;39392;52.832;13.816;2024-03-17T09:01:44;102131.09;;;20.91
53512;BMP280;39392;52.832;13.816;2024-03-17T09:04:09;102132.63;;;20.94
53512;BMP280;39392;52.832;13.816;2024-03-17T09:06:36;102139.66;;;20.96
53512;BMP280;39392;52.832;13.816;2024-03-17T09:09:02;102140.50;;;20.97
53512;BMP280;39392;52.832;13.816;2024-03-17T09:11:28;102137.78;;;20.97
53512;BMP280;39392;52.832;13.816;2024-03-17T09:13:53;102137.63;;;20.98
53512;BMP280;39392;52.832;13.816;2024-03-17T09:16:19;102139.34;;;20.99
53512;BMP280;39392;52.832;13.816;2024-03-17T09:18:47;102142.06;;;20.99
53512;BMP280;39392;52.832;13.816;2024-03-17T09:21:14;102149.22;;;21.00
53512;BMP280;39392;52.832;13.816;2024-03-17T09:23:41;102150.81;;;21.03
53512;BMP280;39392;52.832;13.816;2024-03-17T09:26:07;102147.19;;;21.02
53512;BMP280;39392;52.832;13.816;2024-03-17T09:28:34;102159.66;;;21.05
53512;BMP280;39392;52.832;13.816;2024-03-17T09:30:59;102158.66;;;21.06
53512;BMP280;39392;52.832;13.816;2024-03-17T09:33:26;102158.66;;;21.06
53512;BMP280;39392;52.832;13.816;2024-03-17T09:38:23;102163.78;;;21.09
53512;BMP280;39392;52.832;13.816;2024-03-17T09:40:49;102161.06;;;21.09
53512;BMP280;39392;52.832;13.816;2024-03-17T09:43:18;102157.31;;;21.10
53512;BMP280;39392;52.832;13.816;2024-03-17T09:45:43;102157.19;;;21.11
53512;BMP280;39392;52.832;13.816;2024-03-17T09:48:10;102157.19;;;21.11
53512;BMP280;39392;52.832;13.816;2024-03-17T09:50:39;102163.31;;;21.13
53512;BMP280;39392;52.832;13.816;2024-03-17T09:53:05;102164.19;;;21.14
53512;BMP280;39392;52.832;13.816;2024-03-17T09:55:30;102156.72;;;21.16
53512;BMP280;39392;52.832;13.816;2024-03-17T09:57:56;102147.50;;;21.17
53512;BMP280;39392;52.832;13.816;2024-03-17T10:00:21;102152.13;;;21.17
53512;BMP280;39392;52.832;13.816;2024-03-17T10:02:47;102153.81;;;21.18
53512;BMP280;39392;52.832;13.816;2024-03-17T10:05:18;102150.25;;;21.17
53512;BMP280;39392;52.832;13.816;2024-03-17T10:07:43;102156.38;;;21.19
53512;BMP280;39392;52.832;13.816;2024-03-17T10:10:12;102170.00;;;21.19
53512;BMP280;39392;52.832;13.816;2024-03-17T10:12:38;102162.72;;;21.20
53512;BMP280;39392;52.832;13.816;2024-03-17T10:15:04;102167.28;;;21.19
53512;BMP280;39392;52.832;13.816;2024-03-17T10:17:33;102151.81;;;21.20
53512;BMP280;39392;52.832;13.816;2024-03-17T10:20:13;102160.69;;;21.22
53512;BMP280;39392;52.832;13.816;2024-03-17T10:23:03;102156.25;;;21.21
53512;BMP280;39392;52.832;13.816;2024-03-17T10:25:29;102165.28;;;21.21
53512;BMP280;39392;52.832;13.816;2024-03-17T10:27:55;102166.97;;;21.22
53512;BMP280;39392;52.832;13.816;2024-03-17T10:30:21;102163.22;;;21.23
53512;BMP280;39392;52.832;13.816;2024-03-17T10:32:57;102164.97;;;21.24
53512;BMP280;39392;52.832;13.816;2024-03-17T10:35:30;102163.09;;;21.25
53512;BMP280;39392;52.832;13.816;2024-03-17T10:38:00;102158.81;;;21.22
53512;BMP280;39392;52.832;13.816;2024-03-17T10:40:26;102164.25;;;21.22
53512;BMP280;39392;52.832;13.816;2024-03-17T10:42:52;102156.94;;;21.23
53512;BMP280;39392;52.832;13.816;2024-03-17T10:45:18;102161.41;;;21.24
53512;BMP280;39392;52.832;13.816;2024-03-17T10:47:44;102168.69;;;21.23
53512;BMP280;39392;52.832;13.816;2024-03-17T10:50:15;102163.41;;;21.22
53512;BMP280;39392;52.832;13.816;2024-03-17T10:52:43;102168.69;;;21.23
53512;BMP280;39392;52.832;13.816;2024-03-17T10:55:24;102168.00;;;21.21
53512;BMP280;39392;52.832;13.816;2024-03-17T10:57:54;102173.47;;;21.21
53512;BMP280;39392;52.832;13.816;2024-03-17T11:00:24;102163.03;;;21.17
53512;BMP280;39392;52.832;13.816;2024-03-17T11:02:50;102165.03;;;21.14
53512;BMP280;39392;52.832;13.816;2024-03-17T11:07:45;102164.91;;;21.16
53512;BMP280;39392;52.832;13.816;2024-03-17T11:10:15;102165.75;;;21.17
53512;BMP280;39392;52.832;13.816;2024-03-17T11:12:45;102170.19;;;21.18
53512;BMP280;39392;52.832;13.816;2024-03-17T11:17:47;102180.06;;;21.19
53512;BMP280;39392;52.832;13.816;2024-03-17T11:20:14;102171.88;;;21.19
53512;BMP280;39392;52.832;13.816;2024-03-17T11:22:48;102163.72;;;21.19
53512;BMP280;39392;52.832;13.816;2024-03-17T11:27:55;102167.28;;;21.19
53512;BMP280;39392;52.832;13.816;2024-03-17T11:35:49;102164.91;;;21.16
53512;BMP280;39392;52.832;13.816;2024-03-17T11:39:15;102171.03;;;21.18
53512;BMP280;39392;52.832;13.816;2024-03-17T11:44:12;102169.50;;;21.16
53512;BMP280;39392;52.832;13.816;2024-03-17T11:46:37;102173.94;;;21.17
53512;BMP280;39392;52.832;13.816;2024-03-17T11:49:03;102174.63;;;21.19
53512;BMP280;39392;52.832;13.816;2024-03-17T11:51:29;102172.06;;;21.17
53512;BMP280;39392;52.832;13.816;2024-03-17T11:53:58;102172.06;;;21.17
53512;BMP280;39392;52.832;13.816;2024-03-17T11:56:23;102172.91;;;21.18
53512;BMP280;39392;52.832;13.816;2024-03-17T11:59:03;102172.22;;;21.16
53512;BMP280;39392;52.832;13.816;2024-03-17T12:01:29;102173.94;;;21.17
53512;BMP280;39392;52.832;13.816;2024-03-17T12:03:54;102173.94;;;21.17
53512;BMP280;39392;52.832;13.816;2024-03-17T12:06:22;102172.34;;;21.14
53512;BMP280;39392;52.832;13.816;2024-03-17T12:08:48;102163.50;;;21.12
53512;BMP280;39392;52.832;13.816;2024-03-17T12:11:17;102161.63;;;21.12
53512;BMP280;39392;52.832;13.816;2024-03-17T12:13:43;102168.59;;;21.15
53512;BMP280;39392;52.832;13.816;2024-03-17T12:16:10;102171.34;;;21.15
53512;BMP280;39392;52.832;13.816;2024-03-17T12:18:36;102160.13;;;21.18
53512;BMP280;39392;52.832;13.816;2024-03-17T12:21:11;102167.44;;;21.18
53512;BMP280;39392;52.832;13.816;2024-03-17T12:23:39;102170.91;;;21.20
53512;BMP280;39392;52.832;13.816;2024-03-17T12:26:05;102159.91;;;21.11
53512;BMP280;39392;52.832;13.816;2024-03-17T12:28:40;102166.19;;;20.94
53512;BMP280;39392;52.832;13.816;2024-03-17T12:31:06;102164.56;;;20.83
53512;BMP280;39392;52.832;13.816;2024-03-17T12:33:32;102166.25;;;20.67
53512;BMP280;39392;52.832;13.816;2024-03-17T12:35:57;102164.56;;;20.56
53512;BMP280;39392;52.832;13.816;2024-03-17T12:38:26;102165.59;;;20.55
53512;BMP280;39392;52.832;13.816;2024-03-17T12:40:52;102152.59;;;20.49
53512;BMP280;39392;52.832;13.816;2024-03-17T12:43:18;102150.56;;;20.51
53512;BMP280;39392;52.832;13.816;2024-03-17T12:45:43;102145.84;;;20.53
53512;BMP280;39392;52.832;13.816;2024-03-17T12:48:14;102137.81;;;20.51
53512;BMP280;39392;52.832;13.816;2024-03-17T12:50:46;102143.66;;;20.56
53512;BMP280;39392;52.832;13.816;2024-03-17T12:53:15;102145.94;;;20.61
53512;BMP280;39392;52.832;13.816;2024-03-17T12:55:42;102138.28;;;20.64
53512;BMP280;39392;52.832;13.816;2024-03-17T12:58:26;102140.72;;;20.68
53512;BMP280;39392;52.832;13.816;2024-03-17T13:01:35;102132.53;;;20.68
53512;BMP280;39392;52.832;13.816;2024-03-17T13:04:05;102126.94;;;20.69
53512;BMP280;39392;52.832;13.816;2024-03-17T13:06:32;102122.03;;;20.73
53512;BMP280;39392;52.832;13.816;2024-03-17T13:08:58;102124.47;;;20.76
53512;BMP280;39392;52.832;13.816;2024-03-17T13:11:24;102127.00;;;20.77
53512;BMP280;39392;52.832;13.816;2024-03-17T13:13:49;102128.88;;;20.77
53512;BMP280;39392;52.832;13.816;2024-03-17T13:16:15;102127.72;;;20.79
53512;BMP280;39392;52.832;13.816;2024-03-17T13:18:41;102137.31;;;20.83
53512;BMP280;39392;52.832;13.816;2024-03-17T13:21:07;102134.88;;;20.80
53512;BMP280;39392;52.832;13.816;2024-03-17T13:23:33;102141.91;;;20.83
53512;BMP280;39392;52.832;13.816;2024-03-17T13:25:58;102140.03;;;20.83
53512;BMP280;39392;52.832;13.816;2024-03-17T13:28:24;102140.72;;;20.85
53512;BMP280;39392;52.832;13.816;2024-03-17T13:30:49;102147.91;;;20.86
53512;BMP280;39392;52.832;13.816;2024-03-17T13:33:15;102140.59;;;20.87
53512;BMP280;39392;52.832;13.816;2024-03-17T13:35:41;102145.88;;;20.88
53512;BMP280;39392;52.832;13.816;2024-03-17T13:38:06;102144.16;;;20.87
53512;BMP280;39392;52.832;13.816;2024-03-17T13:40:32;102141.44;;;20.87
53512;BMP280;39392;52.832;13.816;2024-03-17T13:42:58;102134.97;;;20.88
53512;BMP280;39392;52.832;13.816;2024-03-17T13:45:25;102137.69;;;20.88
53512;BMP280;39392;52.832;13.816;2024-03-17T13:47:55;102139.41;;;20.89
53512;BMP280;39392;52.832;13.816;2024-03-17T13:50:21;102126.66;;;20.90
53512;BMP280;39392;52.832;13.816;2024-03-17T13:52:47;102135.53;;;20.92
53512;BMP280;39392;52.832;13.816;2024-03-17T13:57:39;102127.34;;;20.92
53512;BMP280;39392;52.832;13.816;2024-03-17T14:00:05;102131.66;;;20.95
53512;BMP280;39392;52.832;13.816;2024-03-17T14:02:33;102126.19;;;20.95
53512;BMP280;39392;52.832;13.816;2024-03-17T14:04:58;102132.63;;;20.94